Time;durP1;ratioP1;P1;durP2;ratioP2;P2;SDS_P1;SDS_P2;PMS_P1;PMS_P2;Temp;Humidity;BMP_temperature;BMP_pressure;BME280_temperature;BME280_humidity;BME280_pressure;Samples;Min_cycle;Max_cycle;Signal;HPM_P1;HPM_P2
2022/05/05 00:00:09;;;;;;;14.35;9.57;;;8.10;99.90;;;;;;5037776;28;20524;-49
2022/05/05 00:02:35;;;;;;;16.48;9.20;;;8.10;99.90;;;;;;5021045;28;20050;-50
2022/05/05 00:05:02;;;;;;;15.68;9.07;;;8.10;99.90;;;;;;5019044;28;20042;-51
2022/05/05 00:07:27;;;;;;;14.25;9.15;;;8.10;99.90;;;;;;5020625;28;20544;-52
2022/05/05 00:09:53;;;;;;;18.70;10.10;;;8.10;99.90;;;;;;5019365;28;20088;-51
2022/05/05 00:15:05;;;;;;;14.48;9.77;;;8.00;99.90;;;;;;5026948;28;20056;-52
2022/05/05 00:17:33;;;;;;;14.48;9.48;;;8.00;99.90;;;;;;5021141;28;20060;-52
2022/05/05 00:20:00;;;;;;;16.02;9.70;;;7.90;99.90;;;;;;5040357;28;20076;-54
2022/05/05 00:22:26;;;;;;;17.48;9.85;;;8.00;99.90;;;;;;5020889;28;20539;-51
2022/05/05 00:24:51;;;;;;;18.58;10.43;;;8.00;99.90;;;;;;5040113;28;20033;-51
2022/05/05 00:27:17;;;;;;;16.00;9.68;;;8.00;99.90;;;;;;5020069;28;20045;-52
2022/05/05 00:29:43;;;;;;;18.95;10.07;;;8.00;99.90;;;;;;5039872;28;20037;-51
2022/05/05 00:32:09;;;;;;;18.30;10.40;;;8.00;99.90;;;;;;5039271;28;20902;-48
2022/05/05 00:34:34;;;;;;;18.88;10.55;;;8.00;99.90;;;;;;5038949;28;20053;-53
2022/05/05 00:37:00;;;;;;;20.70;10.27;;;8.00;99.90;;;;;;5022509;28;20490;-52
2022/05/05 00:39:26;;;;;;;16.83;9.48;;;7.90;99.90;;;;;;5020567;28;20060;-52
2022/05/05 00:41:52;;;;;;;17.40;10.20;;;8.00;99.90;;;;;;5040239;28;20073;-52
2022/05/05 00:44:18;;;;;;;17.63;9.90;;;8.00;99.90;;;;;;5038343;28;20053;-52
2022/05/05 00:46:48;;;;;;;15.45;9.20;;;8.10;99.90;;;;;;5039724;28;20053;-49
2022/05/05 00:49:14;;;;;;;16.05;9.85;;;8.10;99.90;;;;;;5039185;28;20049;-51
2022/05/05 00:51:41;;;;;;;16.73;9.35;;;8.00;99.90;;;;;;5039022;28;20056;-52
2022/05/05 00:54:07;;;;;;;16.33;9.20;;;8.00;99.90;;;;;;5022041;28;20046;-52
2022/05/05 00:56:34;;;;;;;17.05;9.77;;;8.00;99.90;;;;;;5038104;28;20045;-50
2022/05/05 00:59:01;;;;;;;17.05;8.90;;;8.00;99.90;;;;;;5039845;28;20448;-52
2022/05/05 01:01:26;;;;;;;18.25;9.02;;;8.40;99.90;;;;;;5025245;28;20038;-53
2022/05/05 01:03:53;;;;;;;14.55;8.88;;;8.10;99.90;;;;;;5002025;28;20088;-53
2022/05/05 01:06:19;;;;;;;14.68;8.48;;;8.10;99.90;;;;;;5018879;28;20076;-52
2022/05/05 01:08:45;;;;;;;15.45;8.27;;;8.10;99.90;;;;;;5019051;28;20070;-53
2022/05/05 01:11:11;;;;;;;15.13;8.88;;;8.10;99.90;;;;;;5035253;28;20044;-51
2022/05/05 01:13:41;;;;;;;14.60;8.20;;;8.10;99.90;;;;;;5017970;28;20560;-52
2022/05/05 01:16:09;;;;;;;17.40;7.95;;;8.20;99.90;;;;;;5035261;28;20104;-52
2022/05/05 01:18:35;;;;;;;16.45;8.57;;;8.20;99.90;;;;;;5038031;28;20877;-51
2022/05/05 01:21:01;;;;;;;12.70;7.47;;;8.30;99.90;;;;;;5039363;28;20046;-48
2022/05/05 01:23:27;;;;;;;12.90;7.55;;;8.20;99.90;;;;;;5038350;28;20056;-52
2022/05/05 01:28:44;;;;;;;14.30;7.60;;;8.30;99.90;;;;;;5024447;28;20103;-52
2022/05/05 01:31:10;;;;;;;17.88;8.23;;;8.40;99.90;;;;;;5037692;28;20042;-52
2022/05/05 01:33:36;;;;;;;12.70;7.53;;;8.30;99.90;;;;;;5039177;28;20040;-52
2022/05/05 01:36:03;;;;;;;16.58;9.13;;;8.30;99.90;;;;;;5037918;28;20101;-52
2022/05/05 01:38:37;;;;;;;15.63;10.07;;;8.40;99.90;;;;;;5021320;28;20041;-50
2022/05/05 01:41:14;;;;;;;19.45;9.43;;;8.30;99.90;;;;;;5043109;28;20055;-51
2022/05/05 01:43:43;;;;;;;20.58;9.65;;;8.40;99.90;;;;;;5041575;28;20053;-51
2022/05/05 01:46:08;;;;;;;15.68;9.07;;;8.30;99.90;;;;;;5043378;28;20401;-52
2022/05/05 01:48:34;;;;;;;15.98;9.88;;;8.40;99.90;;;;;;5041984;28;20050;-51
2022/05/05 01:51:01;;;;;;;17.08;9.27;;;8.40;99.90;;;;;;5025151;28;20100;-49
2022/05/05 01:53:27;;;;;;;15.57;8.77;;;8.30;99.90;;;;;;5042043;28;20037;-53
2022/05/05 01:55:53;;;;;;;15.68;8.52;;;8.30;99.90;;;;;;5042331;28;20067;-52
2022/05/05 01:58:19;;;;;;;18.48;9.07;;;8.30;99.90;;;;;;5043000;28;20089;-50
2022/05/05 02:00:45;;;;;;;15.35;8.50;;;8.30;99.90;;;;;;5033732;28;20147;-52
2022/05/05 02:03:13;;;;;;;15.95;8.93;;;8.30;99.90;;;;;;5023492;28;20046;-52
2022/05/05 02:05:41;;;;;;;16.05;8.43;;;8.30;99.90;;;;;;5004042;28;20481;-50
2022/05/05 02:08:07;;;;;;;16.25;8.18;;;8.30;99.90;;;;;;5022961;28;20098;-52
2022/05/05 02:10:33;;;;;;;15.80;8.00;;;8.40;99.90;;;;;;5021947;28;20097;-54
2022/05/05 02:12:58;;;;;;;14.60;7.82;;;8.20;99.90;;;;;;5022332;28;20088;-53
2022/05/05 02:15:24;;;;;;;19.77;9.63;;;8.20;99.90;;;;;;5032777;28;20055;-52
2022/05/05 02:17:51;;;;;;;15.88;9.15;;;8.20;99.90;;;;;;5041354;28;20079;-51
2022/05/05 02:20:17;;;;;;;16.33;8.30;;;8.10;99.90;;;;;;5042662;28;20046;-52
2022/05/05 02:22:42;;;;;;;12.50;7.85;;;8.10;99.90;;;;;;5041087;28;20069;-52
2022/05/05 02:25:08;;;;;;;12.48;8.02;;;8.10;99.90;;;;;;5042373;28;20069;-53
2022/05/05 02:27:52;;;;;;;20.02;9.02;;;8.10;99.90;;;;;;5041261;28;20110;-52
2022/05/05 02:30:19;;;;;;;15.05;8.43;;;8.10;99.90;;;;;;5041385;28;20096;-52
2022/05/05 02:32:45;;;;;;;14.63;7.82;;;8.20;99.90;;;;;;5042760;28;20053;-54
2022/05/05 02:35:11;;;;;;;15.73;8.20;;;8.10;99.90;;;;;;5040771;28;20045;-53
2022/05/05 02:40:22;;;;;;;14.02;7.90;;;8.00;99.90;;;;;;5041027;28;20088;-55
2022/05/05 02:42:48;;;;;;;13.73;8.02;;;8.10;99.90;;;;;;5041719;28;20052;-52
2022/05/05 02:45:14;;;;;;;15.77;8.63;;;8.10;99.90;;;;;;5041917;28;20132;-54
2022/05/05 02:47:39;;;;;;;13.35;8.30;;;8.10;99.90;;;;;;5040639;28;20051;-50
2022/05/05 02:50:05;;;;;;;14.55;7.78;;;8.00;99.90;;;;;;5041963;28;20129;-50
2022/05/05 02:52:31;;;;;;;14.98;8.45;;;8.00;99.90;;;;;;5040293;28;20041;-53
2022/05/05 02:54:57;;;;;;;11.75;7.40;;;8.00;99.90;;;;;;5042023;28;20524;-53
2022/05/05 02:57:24;;;;;;;16.05;8.18;;;7.90;99.90;;;;;;5040448;28;20098;-55
2022/05/05 02:59:50;;;;;;;13.23;7.75;;;8.00;99.90;;;;;;5041535;28;20053;-53
2022/05/05 03:02:17;;;;;;;16.10;8.35;;;8.00;99.90;;;;;;5003891;28;20046;-49
2022/05/05 03:04:43;;;;;;;13.43;7.65;;;8.10;99.90;;;;;;5020481;28;20033;-51
2022/05/05 03:07:09;;;;;;;15.32;8.30;;;7.90;99.90;;;;;;5022236;28;20048;-50
2022/05/05 03:09:35;;;;;;;14.38;9.00;;;7.90;99.90;;;;;;5020397;28;20056;-52
2022/05/05 03:12:00;;;;;;;16.65;8.15;;;7.80;99.90;;;;;;5021714;28;20121;-50
2022/05/05 03:14:27;;;;;;;11.80;7.13;;;7.80;99.90;;;;;;5022336;28;20046;-51
2022/05/05 03:16:52;;;;;;;14.00;7.20;;;7.80;99.90;;;;;;5041265;28;20045;-50
2022/05/05 03:19:18;;;;;;;15.45;7.28;;;7.80;99.90;;;;;;5040674;28;20045;-51
2022/05/05 03:21:44;;;;;;;11.77;6.75;;;7.70;99.90;;;;;;5040348;28;20045;-50
2022/05/05 03:24:10;;;;;;;13.50;6.78;;;7.80;99.90;;;;;;5041684;28;20037;-53
2022/05/05 03:26:36;;;;;;;12.93;5.90;;;7.70;99.90;;;;;;5039793;28;20038;-53
2022/05/05 03:29:02;;;;;;;15.50;6.20;;;7.80;99.90;;;;;;5041058;28;20095;-52
2022/05/05 03:31:28;;;;;;;10.40;5.95;;;7.90;99.90;;;;;;5039778;28;20080;-50
2022/05/05 03:33:54;;;;;;;11.57;6.05;;;7.80;99.90;;;;;;5041149;28;20041;-51
2022/05/05 03:36:19;;;;;;;14.43;5.95;;;7.90;99.90;;;;;;5040637;28;20101;-51
2022/05/05 03:38:45;;;;;;;12.73;6.80;;;7.80;99.90;;;;;;5040357;28;20102;-51
2022/05/05 03:41:11;;;;;;;12.60;6.47;;;7.80;99.90;;;;;;5041499;28;20072;-53
2022/05/05 03:43:36;;;;;;;16.67;6.95;;;7.70;99.90;;;;;;5039515;28;20045;-53
2022/05/05 03:46:02;;;;;;;14.02;6.50;;;7.80;99.90;;;;;;5041135;28;20049;-51
2022/05/05 03:48:30;;;;;;;14.20;6.97;;;7.80;99.90;;;;;;5039691;28;20388;-53
2022/05/05 03:50:56;;;;;;;18.58;6.95;;;7.80;99.90;;;;;;5022829;28;20501;-52
2022/05/05 03:53:22;;;;;;;11.95;6.10;;;7.90;99.90;;;;;;5022017;28;20042;-51
2022/05/05 03:55:47;;;;;;;12.07;6.65;;;7.90;99.90;;;;;;5040134;28;20044;-52
2022/05/05 03:58:13;;;;;;;13.10;7.18;;;7.90;99.90;;;;;;5040866;28;20046;-53
2022/05/05 04:00:39;;;;;;;13.40;7.18;;;7.90;99.90;;;;;;5032419;28;20050;-51
2022/05/05 04:05:49;;;;;;;17.25;7.80;;;7.90;99.90;;;;;;5019465;28;20069;-52
2022/05/05 04:08:14;;;;;;;17.48;7.63;;;8.00;99.90;;;;;;5020627;28;20046;-52
2022/05/05 04:10:40;;;;;;;14.38;7.63;;;8.00;99.90;;;;;;5035450;28;20133;-52
2022/05/05 04:13:06;;;;;;;16.77;8.38;;;7.90;99.90;;;;;;5019775;28;20444;-52
2022/05/05 04:15:32;;;;;;;18.05;8.80;;;8.00;99.90;;;;;;5031732;28;20053;-50
2022/05/05 04:17:57;;;;;;;12.40;7.63;;;8.00;99.90;;;;;;5038747;28;20049;-50
2022/05/05 04:20:23;;;;;;;14.13;7.72;;;8.00;99.90;;;;;;5040450;28;20068;-52
2022/05/05 04:22:56;;;;;;;13.38;7.35;;;8.00;99.90;;;;;;5089929;27;20385;-47
2022/05/05 04:25:22;;;;;;;17.40;8.85;;;8.00;99.90;;;;;;5089721;28;20133;-46
2022/05/05 04:27:49;;;;;;;17.48;9.52;;;7.90;99.90;;;;;;5089750;28;20048;-47
2022/05/05 04:30:16;;;;;;;17.17;8.25;;;7.90;99.90;;;;;;5089841;28;20107;-46
2022/05/05 04:32:43;;;;;;;18.92;8.75;;;8.00;99.90;;;;;;5089600;28;20048;-47
2022/05/05 04:35:09;;;;;;;13.63;8.15;;;8.00;99.90;;;;;;5089623;28;20039;-62
2022/05/05 04:37:35;;;;;;;14.15;8.27;;;8.00;99.90;;;;;;5088610;28;20480;-49
2022/05/05 04:40:01;;;;;;;14.85;8.30;;;8.10;99.90;;;;;;5089372;28;20083;-48
2022/05/05 04:42:27;;;;;;;15.95;8.55;;;8.10;99.90;;;;;;5089413;28;20044;-61
2022/05/05 04:44:52;;;;;;;15.82;8.40;;;8.10;99.90;;;;;;5089462;28;20047;-51
2022/05/05 04:47:18;;;;;;;14.15;8.65;;;8.10;99.90;;;;;;5089350;28;20138;-49
2022/05/05 04:49:44;;;;;;;15.32;8.60;;;8.10;99.90;;;;;;5089327;28;20041;-47
2022/05/05 04:52:10;;;;;;;14.70;8.85;;;8.10;99.90;;;;;;5089261;28;20036;-62
2022/05/05 04:54:35;;;;;;;15.75;8.90;;;8.10;99.90;;;;;;5089104;28;20078;-62
2022/05/05 04:57:01;;;;;;;19.55;9.05;;;8.10;99.90;;;;;;5089156;28;20150;-61
2022/05/05 04:59:27;;;;;;;15.90;8.93;;;8.20;99.90;;;;;;5088028;28;20051;-60
2022/05/05 05:01:53;;;;;;;13.93;8.40;;;8.20;99.90;;;;;;5089059;28;20420;-61
2022/05/05 05:04:19;;;;;;;14.38;8.68;;;8.20;99.90;;;;;;5089138;28;20108;-61
2022/05/05 05:06:44;;;;;;;14.48;8.73;;;8.20;99.90;;;;;;5088846;28;20144;-61
2022/05/05 05:09:10;;;;;;;14.52;8.10;;;8.30;99.90;;;;;;5088824;28;20048;-61
2022/05/05 05:11:36;;;;;;;16.55;8.40;;;8.30;99.90;;;;;;5088889;28;20092;-61
2022/05/05 05:14:01;;;;;;;14.27;8.75;;;8.30;99.90;;;;;;5089067;28;20492;-61
2022/05/05 05:16:27;;;;;;;13.75;8.02;;;8.20;99.90;;;;;;5088787;28;20241;-61
2022/05/05 05:18:54;;;;;;;16.33;8.32;;;8.30;99.90;;;;;;5088624;28;20110;-61
2022/05/05 05:21:20;;;;;;;15.80;8.88;;;8.40;99.90;;;;;;5088413;28;20056;-62
2022/05/05 05:23:46;;;;;;;14.18;7.85;;;8.40;99.90;;;;;;5088676;28;20093;-61
2022/05/05 05:26:13;;;;;;;14.95;7.80;;;8.40;99.90;;;;;;5088844;28;20435;-61
2022/05/05 05:28:40;;;;;;;15.02;7.80;;;8.50;99.90;;;;;;5087338;28;20040;-62
2022/05/05 05:31:06;;;;;;;14.90;8.18;;;8.60;99.90;;;;;;5088622;28;20040;-61
2022/05/05 05:33:31;;;;;;;15.75;7.60;;;8.60;99.90;;;;;;5078118;28;20188;-61
2022/05/05 05:35:57;;;;;;;16.77;8.23;;;8.60;99.90;;;;;;5057009;28;20119;-61
2022/05/05 05:38:23;;;;;;;13.48;7.45;;;8.60;99.90;;;;;;5074808;28;20036;-60
2022/05/05 05:40:49;;;;;;;15.88;7.88;;;8.80;99.90;;;;;;5074960;28;20182;-61
2022/05/05 05:43:15;;;;;;;14.20;8.30;;;8.80;99.90;;;;;;5074955;28;20045;-61
2022/05/05 05:45:41;;;;;;;14.63;9.07;;;8.70;99.90;;;;;;5074654;28;20472;-61
2022/05/05 05:48:07;;;;;;;15.48;7.80;;;8.90;99.90;;;;;;5074737;28;20089;-47
2022/05/05 05:50:33;;;;;;;14.43;7.25;;;8.90;99.90;;;;;;5074445;28;20109;-48
2022/05/05 05:52:59;;;;;;;13.75;7.88;;;9.00;99.90;;;;;;5074607;28;20427;-49
2022/05/05 05:55:25;;;;;;;19.48;8.90;;;9.00;99.90;;;;;;5073962;28;20703;-50
2022/05/05 05:57:50;;;;;;;15.68;7.97;;;9.00;99.90;;;;;;5074001;28;20126;-50
2022/05/05 06:00:16;;;;;;;22.33;10.20;;;9.10;99.90;;;;;;5068633;28;20041;-52
2022/05/05 06:05:27;;;;;;;18.40;9.40;;;9.10;99.90;;;;;;5053446;28;20048;-61
2022/05/05 06:08:00;;;;;;;19.02;9.25;;;9.10;99.90;;;;;;5053629;28;20045;-46
2022/05/05 06:10:27;;;;;;;15.00;7.95;;;9.20;99.90;;;;;;5053667;28;20040;-46
2022/05/05 06:12:53;;;;;;;16.52;8.55;;;9.20;99.90;;;;;;5053519;28;20682;-51
2022/05/05 06:15:19;;;;;;;17.10;8.70;;;9.30;99.90;;;;;;5062631;28;20044;-47
2022/05/05 06:17:44;;;;;;;17.17;8.15;;;9.30;99.90;;;;;;5071987;28;20097;-48
2022/05/05 06:20:11;;;;;;;18.30;9.60;;;9.40;99.90;;;;;;5073422;28;20148;-47
2022/05/05 06:22:37;;;;;;;18.30;9.32;;;9.40;99.90;;;;;;5072858;28;20067;-46
2022/05/05 06:25:04;;;;;;;14.10;9.27;;;9.50;99.90;;;;;;5073273;28;20080;-48
2022/05/05 06:27:30;;;;;;;18.92;9.77;;;9.50;99.90;;;;;;5073169;28;20033;-49
2022/05/05 06:29:55;;;;;;;16.38;9.07;;;9.50;99.90;;;;;;5071733;28;20037;-46
2022/05/05 06:32:21;;;;;;;16.40;9.70;;;9.50;99.90;;;;;;5072865;28;20377;-47
2022/05/05 06:34:47;;;;;;;15.05;8.95;;;9.60;99.90;;;;;;5072907;28;20047;-46
2022/05/05 06:37:13;;;;;;;18.98;8.13;;;9.70;99.90;;;;;;5073080;28;20036;-49
2022/05/05 06:39:39;;;;;;;15.90;8.43;;;9.80;99.90;;;;;;5073005;28;20089;-47
2022/05/05 06:42:05;;;;;;;14.88;8.23;;;9.90;99.90;;;;;;5072809;28;20040;-60
2022/05/05 06:44:31;;;;;;;17.83;8.55;;;9.90;99.90;;;;;;5071944;28;20051;-61
2022/05/05 06:46:58;;;;;;;15.43;7.53;;;9.90;99.90;;;;;;5072680;28;20488;-61
2022/05/05 06:49:24;;;;;;;13.80;8.25;;;9.90;99.90;;;;;;5072955;28;20051;-61
2022/05/05 06:51:50;;;;;;;20.02;9.10;;;10.00;99.90;;;;;;5072687;28;20068;-60
2022/05/05 06:54:16;;;;;;;14.77;7.90;;;10.00;99.90;;;;;;5072691;28;20072;-46
2022/05/05 06:56:42;;;;;;;14.70;7.78;;;10.10;99.90;;;;;;5072654;28;20045;-47
2022/05/05 06:59:07;;;;;;;13.57;7.28;;;10.20;99.90;;;;;;5072612;28;20157;-59
2022/05/05 07:07:06;;;;;;;13.52;7.78;;;10.40;99.90;;;;;;5052266;28;20041;-59
2022/05/05 07:12:16;;;;;;;14.48;7.95;;;10.40;99.90;;;;;;5052399;28;20052;-61
2022/05/05 07:14:44;;;;;;;14.93;7.40;;;10.50;99.90;;;;;;5056409;28;20727;-61
2022/05/05 07:17:10;;;;;;;14.07;7.43;;;10.70;99.90;;;;;;5070805;28;20059;-61
2022/05/05 07:19:35;;;;;;;15.93;7.85;;;10.70;99.90;;;;;;5072021;28;20045;-61
2022/05/05 07:22:01;;;;;;;14.07;7.55;;;10.90;99.90;;;;;;5070466;28;20167;-61
2022/05/05 07:24:30;;;;;;;14.50;7.25;;;11.00;99.90;;;;;;5072114;28;20044;-49
2022/05/05 07:26:56;;;;;;;16.45;7.25;;;10.90;99.90;;;;;;5072213;28;20040;-48
2022/05/05 07:29:22;;;;;;;13.90;6.65;;;11.00;99.90;;;;;;5072244;28;20108;-48
2022/05/05 07:31:47;;;;;;;14.43;8.13;;;11.10;99.90;;;;;;5071929;28;20512;-62
2022/05/05 07:34:13;;;;;;;13.77;6.90;;;11.30;99.90;;;;;;5071410;28;20051;-62
2022/05/05 07:36:39;;;;;;;16.05;7.32;;;11.40;99.90;;;;;;5071576;28;20116;-62
2022/05/05 07:39:05;;;;;;;14.90;7.45;;;11.50;99.90;;;;;;5070968;28;20114;-62
2022/05/05 07:41:30;;;;;;;14.02;7.63;;;11.70;99.90;;;;;;5071286;28;20044;-51
2022/05/05 07:43:56;;;;;;;14.85;7.70;;;11.70;99.90;;;;;;5071285;28;20040;-62
2022/05/05 07:46:23;;;;;;;14.70;6.68;;;11.80;99.90;;;;;;5071372;28;20032;-49
2022/05/05 07:48:50;;;;;;;13.57;7.40;;;11.80;99.90;;;;;;5071142;28;20094;-46
2022/05/05 07:51:16;;;;;;;13.50;7.00;;;11.80;99.90;;;;;;5071711;28;20400;-47
2022/05/05 07:53:42;;;;;;;15.15;7.30;;;11.90;99.90;;;;;;5071388;28;20048;-61
2022/05/05 07:56:07;;;;;;;12.55;7.22;;;12.00;99.90;;;;;;5071375;28;20044;-61
2022/05/05 07:58:34;;;;;;;12.25;6.15;;;12.10;99.90;;;;;;5071515;28;20043;-49
2022/05/05 08:00:59;;;;;;;15.75;7.03;;;12.20;99.90;;;;;;5061840;28;20124;-48
2022/05/05 08:03:25;;;;;;;14.70;6.57;;;12.20;99.90;;;;;;5051708;28;20112;-47
2022/05/05 08:05:51;;;;;;;13.45;6.30;;;12.30;99.90;;;;;;5051595;28;20404;-61
2022/05/05 08:08:17;;;;;;;12.35;6.75;;;12.40;99.90;;;;;;5051430;28;20044;-61
2022/05/05 08:10:43;;;;;;;14.88;6.63;;;12.50;99.90;;;;;;5051637;28;20485;-60
2022/05/05 08:13:09;;;;;;;13.85;6.55;;;12.60;99.90;;;;;;5051542;28;20121;-61
2022/05/05 08:15:35;;;;;;;13.93;6.90;;;12.70;99.90;;;;;;5061598;28;20147;-51
2022/05/05 08:18:01;;;;;;;13.60;6.57;;;12.80;99.90;;;;;;5071234;28;20062;-51
2022/05/05 08:20:27;;;;;;;15.00;5.63;;;12.70;99.90;;;;;;5071112;28;20048;-51
2022/05/05 08:22:53;;;;;;;14.98;6.95;;;12.80;99.90;;;;;;5070086;28;20051;-46
2022/05/05 08:30:47;;;;;;;10.70;5.72;;;13.00;99.90;;;;;;5070831;28;20101;-60
2022/05/05 08:33:13;;;;;;;16.35;6.50;;;13.10;99.90;;;;;;5070581;28;20036;-60
2022/05/05 08:35:41;;;;;;;15.27;6.40;;;13.10;99.90;;;;;;5070661;28;20036;-48
2022/05/05 08:38:07;;;;;;;13.40;7.22;;;13.40;99.90;;;;;;5070651;28;20049;-48
2022/05/05 08:40:35;;;;;;;14.98;6.78;;;13.50;99.90;;;;;;5070488;28;20097;-51
2022/05/05 08:43:01;;;;;;;13.20;6.53;;;13.50;99.90;;;;;;5070528;28;20427;-50
2022/05/05 08:45:30;;;;;;;14.55;6.57;;;13.60;99.90;;;;;;5070278;28;20045;-49
2022/05/05 08:47:59;;;;;;;11.00;5.35;;;13.60;99.90;;;;;;5070387;28;20043;-62
2022/05/05 08:50:25;;;;;;;10.80;4.70;;;14.00;99.90;;;;;;5070783;28;20047;-61
2022/05/05 08:52:52;;;;;;;11.65;5.10;;;14.30;99.90;;;;;;5070219;28;20483;-61
2022/05/05 08:55:20;;;;;;;12.05;5.82;;;14.10;99.90;;;;;;5070280;28;20486;-61
2022/05/05 08:57:46;;;;;;;9.75;5.07;;;14.20;99.90;;;;;;5070483;28;20444;-61
2022/05/05 09:00:16;;;;;;;10.98;5.80;;;14.30;99.90;;;;;;5065973;28;20099;-62
2022/05/05 09:02:43;;;;;;;14.27;6.40;;;14.30;99.90;;;;;;5050658;28;20077;-61
2022/05/05 09:05:09;;;;;;;10.93;5.25;;;14.40;99.90;;;;;;5050168;28;20507;-61
2022/05/05 09:07:52;;;;;;;11.45;5.10;;;14.30;99.90;;;;;;5050687;28;20040;-61
2022/05/05 09:10:19;;;;;;;9.13;5.20;;;14.50;99.90;;;;;;5054404;28;20043;-61
2022/05/05 09:13:01;;;;;;;10.32;5.38;;;14.20;99.90;;;;;;5054350;28;20040;-60
2022/05/05 09:15:35;;;;;;;12.32;6.38;;;14.60;99.90;;;;;;5064332;28;20037;-60
2022/05/05 09:18:22;;;;;;;10.13;5.50;;;14.60;99.90;;;;;;5066562;28;20041;-61
2022/05/05 09:20:49;;;;;;;16.23;6.60;;;14.70;99.90;;;;;;5074077;28;20032;-61
2022/05/05 09:24:34;;;;;;;14.85;6.22;;;14.70;99.90;;;;;;5074815;28;20084;-61
2022/05/05 09:26:26;;;;;;;11.00;6.07;;;15.00;99.90;;;;;;5074243;28;20439;-60
2022/05/05 09:28:52;;;;;;;13.40;6.47;;;14.90;99.90;;;;;;5074151;28;20119;-60
2022/05/05 09:31:18;;;;;;;13.27;6.65;;;15.10;99.90;;;;;;5074352;28;20041;-60
2022/05/05 09:33:45;;;;;;;17.55;7.60;;;15.30;99.90;;;;;;5074562;28;20051;-60
2022/05/05 09:36:15;;;;;;;12.45;5.47;;;15.40;99.90;;;;;;5073260;28;20488;-60
2022/05/05 09:39:10;;;;;;;14.10;7.18;;;15.30;99.90;;;;;;5074534;28;20071;-61
2022/05/05 09:41:46;;;;;;;15.20;6.60;;;15.40;99.90;;;;;;5073485;28;20087;-61
2022/05/05 09:44:13;;;;;;;11.73;6.50;;;15.10;99.90;;;;;;5074385;28;20080;-61
2022/05/05 09:46:39;;;;;;;12.60;6.18;;;15.30;99.90;;;;;;5074567;28;20071;-61
2022/05/05 09:49:12;;;;;;;15.63;6.35;;;15.10;99.90;;;;;;5074208;28;20036;-61
2022/05/05 09:51:42;;;;;;;15.43;7.32;;;15.40;99.90;;;;;;5074656;28;20427;-61
2022/05/05 09:59:51;;;;;;;12.82;6.35;;;15.60;99.90;;;;;;5074442;28;20079;-48
2022/05/05 10:05:22;;;;;;;16.48;8.07;;;15.90;99.90;;;;;;5054558;28;20052;-46
2022/05/05 10:07:51;;;;;;;13.00;7.03;;;15.70;99.90;;;;;;5054382;28;20041;-47
2022/05/05 10:10:18;;;;;;;15.30;7.20;;;15.80;99.90;;;;;;5053941;28;20091;-46
2022/05/05 10:12:45;;;;;;;15.52;8.35;;;16.00;99.90;;;;;;5053455;28;20071;-47
2022/05/05 10:15:12;;;;;;;12.77;6.93;;;16.20;99.90;;;;;;5060749;28;20507;-47
2022/05/05 10:17:39;;;;;;;12.85;7.68;;;16.40;99.90;;;;;;5074465;28;20400;-46
2022/05/05 10:20:06;;;;;;;15.75;7.60;;;16.20;99.90;;;;;;5074261;28;20044;-46
2022/05/05 10:22:54;;;;;;;14.00;8.35;;;16.40;99.90;;;;;;5072581;28;20048;-47
2022/05/05 10:25:26;;;;;;;11.32;7.32;;;16.10;99.90;;;;;;5073911;28;20043;-48
2022/05/05 10:27:54;;;;;;;13.75;8.93;;;16.20;99.90;;;;;;5073840;28;20545;-46
2022/05/05 10:30:34;;;;;;;14.13;8.43;;;16.20;99.90;;;;;;5074216;28;20036;-46
2022/05/05 10:33:08;;;;;;;14.95;8.93;;;16.20;99.90;;;;;;5073885;28;20040;-46
2022/05/05 10:35:40;;;;;;;13.82;8.57;;;16.40;99.90;;;;;;5073851;28;20048;-49
2022/05/05 10:38:38;;;;;;;15.05;8.43;;;16.40;99.90;;;;;;5073703;28;20074;-47
2022/05/05 10:41:29;;;;;;;13.55;8.10;;;16.50;99.90;;;;;;5073633;28;20044;-50
2022/05/05 10:44:20;;;;;;;13.98;7.75;;;16.40;99.90;;;;;;5073161;28;20036;-48
2022/05/05 10:47:03;;;;;;;14.35;8.88;;;16.40;99.90;;;;;;5073503;28;20045;-46
2022/05/05 10:52:09;;;;;;;13.63;8.63;;;16.40;99.90;;;;;;5073069;28;20540;-47
2022/05/05 10:54:43;;;;;;;11.90;8.65;;;16.60;99.90;;;;;;5073195;28;20044;-46
2022/05/05 10:57:27;;;;;;;13.32;8.45;;;16.70;99.90;;;;;;5073031;28;20439;-51
2022/05/05 11:00:11;;;;;;;13.68;8.50;;;17.10;99.90;;;;;;5072757;28;20083;-49
2022/05/05 11:02:58;;;;;;;14.98;9.40;;;17.10;99.90;;;;;;5053152;28;20060;-46
2022/05/05 11:05:29;;;;;;;11.93;8.30;;;17.30;99.90;;;;;;5052167;28;20095;-47
2022/05/05 11:08:17;;;;;;;12.52;8.35;;;17.50;99.90;;;;;;5053379;28;20037;-46
2022/05/05 11:13:44;;;;;;;15.70;9.23;;;17.40;99.90;;;;;;5052997;28;20090;-47
2022/05/05 11:22:17;;;;;;;15.80;8.45;;;17.40;99.90;;;;;;5072593;28;20124;-46
2022/05/05 11:24:47;;;;;;;;;;;17.50;99.90;;;;;;5073481;28;20052;-51
2022/05/05 11:27:21;;;;;;;12.55;6.78;;;17.20;99.90;;;;;;5072974;28;19916;-47
2022/05/05 11:29:55;;;;;;;14.27;7.50;;;17.40;99.90;;;;;;5072714;28;20493;-47
2022/05/05 11:32:28;;;;;;;13.30;8.57;;;17.60;99.90;;;;;;5072156;28;20055;-50
2022/05/05 11:34:53;;;;;;;12.82;6.78;;;17.60;99.90;;;;;;5071790;28;20109;-47
2022/05/05 11:37:19;;;;;;;14.52;8.32;;;17.70;99.90;;;;;;5072696;28;20048;-46
2022/05/05 11:39:50;;;;;;;12.32;7.47;;;17.60;99.90;;;;;;5072721;28;20124;-47
2022/05/05 11:42:16;;;;;;;13.97;8.00;;;17.80;99.90;;;;;;5072613;28;20044;-49
2022/05/05 11:44:43;;;;;;;12.43;7.78;;;18.10;99.90;;;;;;5072395;28;20493;-53
2022/05/05 11:47:14;;;;;;;13.32;7.05;;;17.80;99.90;;;;;;5072738;28;20044;-50
2022/05/05 11:49:43;;;;;;;11.50;7.55;;;17.80;99.90;;;;;;5072679;28;20045;-48
2022/05/05 11:52:14;;;;;;;13.07;7.05;;;18.00;99.90;;;;;;5072480;28;20076;-47
2022/05/05 11:54:39;;;;;;;13.02;7.35;;;18.00;99.90;;;;;;5072334;28;20044;-48
2022/05/05 11:57:05;;;;;;;12.48;8.00;;;18.10;99.90;;;;;;5072354;28;20040;-47
2022/05/05 12:02:22;;;;;;;11.73;8.10;;;17.80;99.90;;;;;;5052177;28;20056;-48
2022/05/05 12:04:56;;;;;;;12.52;8.13;;;18.10;99.90;;;;;;5052449;28;20037;-48
2022/05/05 12:07:23;;;;;;;13.50;7.82;;;18.20;99.90;;;;;;5052353;28;20493;-50
2022/05/05 12:09:58;;;;;;;14.38;8.70;;;18.40;99.90;;;;;;5052198;28;20112;-61
2022/05/05 12:12:26;;;;;;;13.88;7.80;;;18.40;99.90;;;;;;5052424;28;20500;-47
2022/05/05 12:14:54;;;;;;;14.10;8.90;;;18.50;99.90;;;;;;5056650;28;20101;-46
2022/05/05 12:17:23;;;;;;;13.85;8.20;;;18.20;99.90;;;;;;5072217;28;20048;-49
2022/05/05 12:19:59;;;;;;;13.88;9.00;;;18.40;99.90;;;;;;5072186;28;20154;-52
2022/05/05 12:22:29;;;;;;;11.90;7.45;;;18.60;99.90;;;;;;5071780;28;20177;-49
2022/05/05 12:25:01;;;;;;;11.93;7.07;;;18.50;99.90;;;;;;5072180;28;20083;-60
2022/05/05 12:27:27;;;;;;;11.43;6.63;;;18.30;99.90;;;;;;5072165;28;20412;-61
2022/05/05 12:29:53;;;;;;;14.80;7.78;;;18.20;99.90;;;;;;5070931;28;20036;-61
2022/05/05 12:32:20;;;;;;;13.50;8.20;;;18.30;99.90;;;;;;5072042;28;20037;-60
2022/05/05 12:34:47;;;;;;;11.38;7.40;;;18.10;99.90;;;;;;5071846;28;20602;-61
2022/05/05 12:37:20;;;;;;;12.98;7.35;;;18.50;99.90;;;;;;5071946;28;20460;-61
2022/05/05 12:39:52;;;;;;;12.48;7.28;;;18.60;99.90;;;;;;5072133;28;20395;-60
2022/05/05 12:42:19;;;;;;;13.73;8.25;;;18.80;99.90;;;;;;5070548;28;20041;-61
2022/05/05 12:44:45;;;;;;;13.23;8.38;;;18.80;99.90;;;;;;5074568;28;20147;-60
2022/05/05 12:47:11;;;;;;;12.45;7.47;;;18.60;99.90;;;;;;5075959;28;20036;-61
2022/05/05 12:49:39;;;;;;;13.18;7.40;;;18.40;99.90;;;;;;5075851;28;20063;-61
2022/05/05 12:59:36;;;;;;;12.38;7.18;;;18.60;99.90;;;;;;5076139;28;20036;-61
2022/05/05 13:00:21;;;;;;;13.30;6.57;;;18.80;99.90;;;;;;5070915;28;20123;-61
2022/05/05 13:02:47;;;;;;;11.88;6.93;;;18.90;99.90;;;;;;5055572;28;20151;-61
2022/05/05 13:05:13;;;;;;;11.77;7.15;;;19.10;99.90;;;;;;5055641;28;20499;-50
2022/05/05 13:07:39;;;;;;;14.25;6.97;;;19.30;99.90;;;;;;5054124;28;20473;-47
2022/05/05 13:10:05;;;;;;;11.13;6.93;;;19.20;99.90;;;;;;5055364;28;20162;-48
2022/05/05 13:12:30;;;;;;;12.05;7.53;;;18.90;99.90;;;;;;5055311;28;20037;-50
2022/05/05 13:14:56;;;;;;;10.93;6.80;;;18.90;99.90;;;;;;5061400;28;20047;-46
2022/05/05 13:17:22;;;;;;;12.13;6.85;;;19.10;99.90;;;;;;5075083;28;20043;-48
2022/05/05 13:19:47;;;;;;;12.30;6.85;;;19.10;99.90;;;;;;5075291;28;20119;-46
2022/05/05 13:22:13;;;;;;;11.05;6.35;;;19.10;99.90;;;;;;5074563;28;20090;-48
2022/05/05 13:24:38;;;;;;;9.02;4.80;;;19.40;99.90;;;;;;5074501;28;20039;-47
2022/05/05 13:27:04;;;;;;;9.02;5.32;;;19.20;99.90;;;;;;5073481;28;20634;-48
2022/05/05 13:29:30;;;;;;;10.40;5.80;;;19.30;99.90;;;;;;5074506;28;20582;-48
2022/05/05 13:31:56;;;;;;;14.52;8.75;;;19.10;99.90;;;;;;5074729;28;20080;-51
2022/05/05 13:34:22;;;;;;;15.57;9.65;;;18.90;99.90;;;;;;5074590;28;20076;-48
2022/05/05 13:36:47;;;;;;;14.00;9.60;;;19.10;99.90;;;;;;5074195;28;20043;-46
2022/05/05 13:39:14;;;;;;;13.30;8.68;;;18.80;99.90;;;;;;5074114;28;20788;-47
2022/05/05 13:41:40;;;;;;;13.82;8.95;;;19.10;99.90;;;;;;5074425;28;20389;-47